METAR AND TAF INFORMATION
METAR FOR LTAG
ADDS - METARS form results

(0634 UTC 08 December 2022)
Data provider http://aviationweather.gov/metar/data/
 
METAR text: LTAG 080620Z VRB02KT 9999 SCT035 BKN090 14/09 Q1020 NOSIG RMK 4CU035 7AC090
Conditions at: LTAG (ADANA/INCIRLIK A, TR) observed 0620 UTC 08 December 2022
Temperature: 14.0°C (57°F)
Dewpoint: 9.0°C (48°F) [RH = 72%]
Pressure (altimeter): 30.12 inches Hg (1020.0 mb)
Winds: variable direction winds at 2 MPH (2 knots; 1.0 m/s)
Visibility: 6 or more miles (10+ km)
Ceiling: 9000 feet AGL
Clouds: scattered clouds at 3500 feet AGL
broken clouds at 9000 feet AGL
Weather: no significant weather observed at this time

METAR text: LTAG 080550Z VRB01KT 9999 SCT035 BKN090 14/08 Q1020 NOSIG RMK 4CU035 7AC090
Conditions at: LTAG (ADANA/INCIRLIK A, TR) observed 0550 UTC 08 December 2022
Temperature: 14.0°C (57°F)
Dewpoint: 8.0°C (46°F) [RH = 67%]
Pressure (altimeter): 30.12 inches Hg (1020.0 mb)
Winds: variable direction winds at 1 MPH (1 knots; 0.5 m/s)
Visibility: 6 or more miles (10+ km)
Ceiling: 9000 feet AGL
Clouds: scattered clouds at 3500 feet AGL
broken clouds at 9000 feet AGL
Weather: no significant weather observed at this time

Forecast for: LTAG (ADANA/INCIRLIK A, TR)
Text: TAF LTAG 080440Z 0806/0906 VRB02KT 9999 SCT035 SCT090
Forecast period: 0600 UTC 08 December 2022 to 0600 UTC 09 December 2022
Forecast type: FROM: standard forecast or significant change
Winds: variable direction winds at 2 MPH (2 knots; 1.0 m/s)
Visibility: 6 or more miles (10+ km)
Ceiling: at least 12,000 feet AGL
Clouds: scattered clouds at 3500 feet AGL
scattered clouds at 9000 feet AGL
Weather: no significant weather forecast for this period

 AIRPORT MAP

 RUNWAY INFORMATION
Runway 05 Runway length 10000 ft Runway width 148 ft
Runway elevation 175 ft Runway displaced threshold 0 ft Runway heading 53
Runway 23 Runway length 10000 ft Runway width 148 ft
Runway elevation 238 ft Runway displaced threshold 0 ft Runway heading 233

 AIRPORT FREQUENCIES
Type A/D Name APP Frequency 128 MHZ
Type AC Name ARRIVAL Frequency 26.262 MHZ
Type ACP Name AMC AIRLIF Frequency 37.985 MHZ
Type ATIS Name ATIS Frequency 37.822 MHZ
Type GND Name GND Frequency 123.025 MHZ
Type OPS Name OPC MSN DR Frequency 31.54 MHZ
Type PAR Name PERCISION Frequency 34.187 MHZ
Type PMSV Name PMSV METRO Frequency 28.442 MHZ
Type POST Name COMD POST Frequency 31.54 MHZ
Type PTD Name DISPATCH Frequency 33.905 MHZ
Type SF Name SUPERVISOR Frequency 27.54 MHZ
Type SFA Name SINGLE FRE Frequency 37.822 MHZ
Type TAFR Name TUAF RAPCO Frequency 23.512 MHZ
Type TWR Name TWR Frequency 129.4 MHZ

 AIRPORT NEAR NAVIGATION AIDS
Type TACAN Name Incirlik Frequency 108400 KHZ